createdAt,value
2019-01-05T00:00:53.381Z,20.53
2019-01-05T00:03:13.101Z,20.70
2019-01-05T00:05:30.312Z,20.50
2019-01-05T00:07:50.851Z,20.33
2019-01-05T00:10:16.925Z,20.27
2019-01-05T00:12:36.136Z,20.03
2019-01-05T00:14:55.741Z,19.67
2019-01-05T00:17:25.549Z,19.27
2019-01-05T00:19:41.273Z,20.50
2019-01-05T00:22:07.837Z,18.97
2019-01-05T00:24:24.550Z,20.13
2019-01-05T00:26:42.560Z,18.83
2019-01-05T00:29:10.628Z,19.73
2019-01-05T00:31:34.124Z,19.33
2019-01-05T00:33:57.656Z,20.17
2019-01-05T00:36:33.448Z,19.13
2019-01-05T00:38:53.498Z,20.07
2019-01-05T00:41:22.365Z,18.83
2019-01-05T00:43:37.840Z,18.87
2019-01-05T00:46:01.228Z,18.97
2019-01-05T00:48:24.256Z,18.80
2019-01-05T00:50:48.645Z,19.13
2019-01-05T00:53:07.753Z,19.27
2019-01-05T00:55:27.191Z,19.50
2019-01-05T00:57:42.164Z,20.47
2019-01-05T01:00:05.477Z,21.33
2019-01-05T01:02:24.792Z,19.93
2019-01-05T01:04:44.231Z,19.93
2019-01-05T01:07:16.200Z,18.83
2019-01-05T01:09:42.928Z,18.90
2019-01-05T01:12:07.828Z,19.03
2019-01-05T01:14:46.416Z,20.07
2019-01-05T01:17:05.515Z,19.47
2019-01-05T01:19:24.917Z,21.27
2019-01-05T01:21:47.421Z,19.53
2019-01-05T01:24:20.021Z,19.87
2019-01-05T01:26:40.512Z,19.30
2019-01-05T01:29:01.016Z,19.97
2019-01-05T01:31:21.496Z,20.13
2019-01-05T01:33:42.797Z,20.07
2019-01-05T01:36:01.872Z,20.57
2019-01-05T01:38:28.450Z,19.77
2019-01-05T01:40:43.551Z,19.37
2019-01-05T01:43:16.656Z,19.73
2019-01-05T01:45:28.565Z,20.53
2019-01-05T01:47:48.013Z,19.87
2019-01-05T01:50:26.979Z,19.40
2019-01-05T01:52:50.236Z,19.57
2019-01-05T01:55:29.140Z,20.27
2019-01-05T01:57:58.616Z,20.20
2019-01-05T02:00:19.101Z,18.73
2019-01-05T02:02:38.251Z,18.17
2019-01-05T02:04:57.652Z,19.67
2019-01-05T02:07:16.969Z,19.10
2019-01-05T02:09:40.461Z,20.17
2019-01-05T02:12:00.956Z,19.83
2019-01-05T02:14:20.041Z,19.37
2019-01-05T02:16:39.532Z,19.00
2019-01-05T02:19:09.109Z,18.90
2019-01-05T02:21:40.068Z,19.37
2019-01-05T02:24:09.836Z,19.17
2019-01-05T02:26:40.521Z,19.17
2019-01-05T02:29:13.348Z,19.53
2019-01-05T02:31:28.449Z,18.97
2019-01-05T02:33:49.886Z,18.20
2019-01-05T02:36:13.136Z,18.13
2019-01-05T02:38:44.274Z,17.53
2019-01-05T02:40:57.551Z,18.53
2019-01-05T02:43:27.117Z,19.53
2019-01-05T02:45:47.618Z,18.27
2019-01-05T02:48:13.641Z,19.03
2019-01-05T02:50:25.025Z,18.43
2019-01-05T02:52:44.669Z,18.67
2019-01-05T02:55:08.381Z,17.70
2019-01-05T02:57:27.605Z,18.10
2019-01-05T02:59:47.030Z,17.67
2019-01-05T03:01:58.720Z,17.73
2019-01-05T03:04:31.365Z,18.13
2019-01-05T03:06:50.713Z,18.23
2019-01-05T03:09:15.717Z,18.20
2019-01-05T03:11:50.967Z,17.23
2019-01-05T03:14:10.465Z,17.30
2019-01-05T03:16:24.792Z,17.90
2019-01-05T03:18:41.693Z,17.17
2019-01-05T03:20:54.209Z,17.67
2019-01-05T03:23:16.315Z,18.07
2019-01-05T03:25:35.664Z,18.00
2019-01-05T03:27:50.464Z,17.30
2019-01-05T03:30:26.234Z,17.37
2019-01-05T03:33:00.334Z,16.20
2019-01-05T03:35:19.393Z,16.87
2019-01-05T03:37:38.693Z,16.60
2019-01-05T03:39:59.205Z,16.13
2019-01-05T03:42:28.522Z,16.67
2019-01-05T03:45:01.196Z,16.10
2019-01-05T03:47:36.822Z,15.70
2019-01-05T03:49:55.981Z,15.33
2019-01-05T03:52:22.568Z,16.33
2019-01-05T03:54:49.282Z,15.80
2019-01-05T03:57:18.608Z,16.60
2019-01-05T03:59:37.929Z,15.07
2019-01-05T04:02:13.796Z,16.13
2019-01-05T04:04:37.208Z,14.50
2019-01-05T04:06:57.725Z,15.07
2019-01-05T04:09:17.349Z,15.20
2019-01-05T04:11:53.261Z,15.03
2019-01-05T04:14:07.759Z,14.97
2019-01-05T04:16:32.893Z,15.10
2019-01-05T04:19:03.905Z,15.20
2019-01-05T04:21:22.245Z,14.33
2019-01-05T04:23:39.576Z,13.97
2019-01-05T04:25:58.761Z,13.30
2019-01-05T04:28:34.580Z,14.57
2019-01-05T04:31:03.912Z,14.30
2019-01-05T04:33:33.348Z,14.93
2019-01-05T04:35:49.708Z,14.47
2019-01-05T04:38:01.070Z,13.87
2019-01-05T04:40:24.452Z,14.70
2019-01-05T04:42:39.604Z,14.27
2019-01-05T04:44:58.063Z,14.03
2019-01-05T04:47:17.261Z,14.00
2019-01-05T04:49:40.871Z,13.57
2019-01-05T04:52:06.805Z,13.47
2019-01-05T04:54:25.245Z,13.77
2019-01-05T04:56:38.392Z,14.00
2019-01-05T04:58:57.038Z,13.57
2019-01-05T05:01:16.200Z,13.20
2019-01-05T05:03:51.632Z,13.43
2019-01-05T05:06:10.481Z,13.20
2019-01-05T05:08:40.101Z,13.13
2019-01-05T05:10:59.670Z,12.70
2019-01-05T05:13:20.160Z,12.90
2019-01-05T05:15:46.816Z,12.17
2019-01-05T05:18:07.316Z,13.23
2019-01-05T05:20:28.189Z,12.53
2019-01-05T05:22:47.340Z,12.60
2019-01-05T05:25:21.777Z,12.40
2019-01-05T05:27:45.231Z,12.73
2019-01-05T05:30:08.476Z,12.53
2019-01-05T05:32:37.776Z,12.93
2019-01-05T05:35:00.352Z,12.60
2019-01-05T05:37:19.096Z,12.80
2019-01-05T05:39:38.461Z,11.77
2019-01-05T05:41:57.419Z,10.60
2019-01-05T05:44:16.820Z,11.20
2019-01-05T05:46:27.880Z,11.50
2019-01-05T05:48:47.333Z,10.60
2019-01-05T05:51:11.060Z,10.70
2019-01-05T05:53:35.905Z,10.00
2019-01-05T05:55:57.203Z,10.50
2019-01-05T05:58:17.709Z,10.83
2019-01-05T06:00:33.588Z,9.37
2019-01-05T06:02:54.108Z,10.07
2019-01-05T06:05:14.573Z,9.67
2019-01-05T06:07:33.740Z,9.50
2019-01-05T06:09:46.344Z,10.13
2019-01-05T06:12:01.009Z,10.40
2019-01-05T06:14:30.711Z,10.57
2019-01-05T06:16:49.532Z,10.57
2019-01-05T06:19:16.223Z,9.83
2019-01-05T06:21:55.244Z,10.47
2019-01-05T06:24:10.322Z,9.20
2019-01-05T06:26:42.720Z,9.23
2019-01-05T06:29:05.988Z,8.87
2019-01-05T06:31:26.836Z,9.17
2019-01-05T06:33:54.216Z,9.60
2019-01-05T06:36:26.569Z,8.90
2019-01-05T06:38:46.052Z,9.10
2019-01-05T06:41:02.540Z,8.97
2019-01-05T06:43:21.732Z,9.20
2019-01-05T06:45:55.305Z,8.53
2019-01-05T06:48:13.555Z,9.10
2019-01-05T06:50:32.664Z,9.90
2019-01-05T06:52:52.048Z,9.77
2019-01-05T06:55:12.532Z,9.93
2019-01-05T06:57:28.664Z,9.57
2019-01-05T07:00:00.436Z,9.97
2019-01-05T07:02:15.789Z,9.50
2019-01-05T07:04:35.012Z,9.77
2019-01-05T07:06:55.496Z,9.87
2019-01-05T07:09:14.724Z,9.77
2019-01-05T07:11:35.220Z,9.53
2019-01-05T07:13:54.764Z,8.93
2019-01-05T07:16:33.836Z,9.50
2019-01-05T07:18:53.320Z,8.77
2019-01-05T07:21:11.651Z,8.63
2019-01-05T07:23:33.865Z,8.83
2019-01-05T07:25:53.472Z,8.47
2019-01-05T07:28:08.730Z,8.23
2019-01-05T07:30:28.037Z,9.07
2019-01-05T07:33:05.480Z,7.87
2019-01-05T07:35:38.236Z,8.23
2019-01-05T07:37:57.409Z,7.50
2019-01-05T07:40:27.851Z,8.30
2019-01-05T07:42:48.336Z,8.20
2019-01-05T07:45:07.501Z,8.67
2019-01-05T07:47:26.848Z,7.80
2019-01-05T07:49:59.662Z,7.40
2019-01-05T07:52:14.703Z,7.77
2019-01-05T07:54:29.380Z,7.70
2019-01-05T07:56:52.216Z,7.50
2019-01-05T07:59:11.703Z,8.13
2019-01-05T08:01:31.298Z,8.43
2019-01-05T08:03:51.797Z,8.53
2019-01-05T08:06:11.548Z,7.60
2019-01-05T08:08:34.800Z,7.13
2019-01-05T08:10:53.968Z,8.17
2019-01-05T08:13:32.752Z,8.33
2019-01-05T08:15:53.244Z,8.17
2019-01-05T08:18:19.697Z,8.40
2019-01-05T08:20:47.569Z,8.23
2019-01-05T08:23:07.015Z,7.87
2019-01-05T08:25:26.416Z,8.27
2019-01-05T08:27:46.205Z,8.20
2019-01-05T08:30:05.492Z,8.00
2019-01-05T08:32:41.424Z,7.47
2019-01-05T08:35:14.509Z,8.27
2019-01-05T08:37:40.812Z,7.20
2019-01-05T08:40:00.256Z,7.10
2019-01-05T08:42:19.625Z,7.20
2019-01-05T08:44:35.444Z,7.10
2019-01-05T08:47:11.227Z,6.53
2019-01-05T08:49:43.685Z,6.70
2019-01-05T08:51:58.041Z,6.60
2019-01-05T08:54:21.313Z,6.13
2019-01-05T08:56:39.522Z,6.20
2019-01-05T08:59:08.848Z,6.77
2019-01-05T09:01:33.621Z,6.53
2019-01-05T09:04:03.244Z,5.73
2019-01-05T09:06:22.592Z,6.00
2019-01-05T09:08:46.181Z,6.47
2019-01-05T09:11:18.772Z,6.27
2019-01-05T09:13:37.837Z,6.80
2019-01-05T09:15:57.368Z,6.17
2019-01-05T09:18:16.700Z,6.53
2019-01-05T09:20:43.253Z,6.13
2019-01-05T09:23:18.856Z,6.50
2019-01-05T09:25:38.284Z,6.67
2019-01-05T09:28:01.557Z,5.93
2019-01-05T09:30:29.032Z,6.17
2019-01-05T09:32:48.468Z,6.07
2019-01-05T09:35:18.073Z,6.77
2019-01-05T09:37:37.605Z,6.70
2019-01-05T09:39:59.694Z,7.67
2019-01-05T09:42:29.473Z,7.17
2019-01-05T09:44:47.044Z,6.40
2019-01-05T09:47:22.831Z,5.83
2019-01-05T09:49:49.060Z,6.53
2019-01-05T09:52:24.726Z,6.17
2019-01-05T09:54:47.904Z,6.33
2019-01-05T09:57:06.992Z,6.00
2019-01-05T09:59:27.464Z,6.67
2019-01-05T10:01:50.744Z,6.60
2019-01-05T10:04:09.817Z,6.07
2019-01-05T10:06:39.591Z,5.70
2019-01-05T10:08:58.678Z,5.17
2019-01-05T10:11:14.470Z,5.73
2019-01-05T10:13:25.313Z,5.80
2019-01-05T10:15:53.453Z,6.20
2019-01-05T10:18:03.192Z,5.40
2019-01-05T10:20:35.936Z,5.40
2019-01-05T10:23:02.433Z,5.00
2019-01-05T10:25:25.718Z,5.30
2019-01-05T10:27:48.860Z,5.20
2019-01-05T10:30:08.265Z,5.23
2019-01-05T10:32:21.864Z,5.10
2019-01-05T10:34:51.184Z,5.23
2019-01-05T10:37:11.668Z,5.67
2019-01-05T10:39:30.820Z,5.40
2019-01-05T10:41:49.284Z,4.80
2019-01-05T10:44:21.548Z,4.87
2019-01-05T10:46:54.100Z,4.93
2019-01-05T10:49:13.188Z,5.07
2019-01-05T10:51:38.368Z,5.07
2019-01-05T10:54:04.940Z,5.77
2019-01-05T10:56:28.192Z,5.57
2019-01-05T10:58:53.475Z,5.27
2019-01-05T11:01:20.272Z,5.00
2019-01-05T11:03:46.608Z,4.77
2019-01-05T11:06:05.782Z,5.03
2019-01-05T11:08:26.261Z,5.30
2019-01-05T11:10:46.740Z,5.03
2019-01-05T11:13:06.210Z,4.40
2019-01-05T11:15:25.577Z,4.63
2019-01-05T11:17:44.944Z,4.90
2019-01-05T11:19:57.525Z,4.77
2019-01-05T11:22:14.752Z,5.27
2019-01-05T11:24:38.264Z,4.87
2019-01-05T11:27:10.871Z,4.90
2019-01-05T11:29:30.109Z,4.53
2019-01-05T11:31:59.756Z,4.77
2019-01-05T11:34:23.237Z,5.10
2019-01-05T11:36:42.348Z,5.07
2019-01-05T11:39:09.650Z,5.07
2019-01-05T11:41:48.528Z,5.57
2019-01-05T11:44:07.910Z,5.37
2019-01-05T11:46:33.940Z,5.13
2019-01-05T11:48:54.421Z,5.27
2019-01-05T11:51:14.001Z,5.00
2019-01-05T11:53:37.394Z,5.27
2019-01-05T11:55:56.961Z,4.83
2019-01-05T11:58:16.249Z,5.40
2019-01-05T12:00:39.913Z,5.80
2019-01-05T12:02:59.161Z,5.13
2019-01-05T12:05:22.938Z,5.17
2019-01-05T12:07:39.355Z,6.03
2019-01-05T12:09:59.825Z,5.70
2019-01-05T12:12:19.363Z,6.50
2019-01-05T12:14:46.548Z,7.77
2019-01-05T12:17:05.736Z,7.70
2019-01-05T12:19:30.723Z,5.73
2019-01-05T12:21:49.821Z,5.63
2019-01-05T12:24:09.289Z,5.83
2019-01-05T12:26:27.484Z,5.57
2019-01-05T12:28:54.143Z,5.20
2019-01-05T12:31:13.309Z,5.83
2019-01-05T12:33:30.213Z,5.63
2019-01-05T12:35:45.852Z,5.77
2019-01-05T12:38:18.416Z,5.60
2019-01-05T12:40:51.032Z,6.17
2019-01-05T12:43:10.124Z,5.50
2019-01-05T12:45:36.099Z,5.20
2019-01-05T12:47:55.281Z,4.80
2019-01-05T12:50:15.760Z,4.80
2019-01-05T12:52:34.960Z,4.40
2019-01-05T12:54:54.321Z,4.47
2019-01-05T12:57:20.872Z,5.00
2019-01-05T12:59:43.006Z,4.50
2019-01-05T13:02:05.905Z,4.50
2019-01-05T13:04:29.397Z,4.30
2019-01-05T13:06:40.548Z,4.40
2019-01-05T13:08:59.605Z,4.60
2019-01-05T13:11:20.089Z,4.47
2019-01-05T13:13:43.321Z,4.70
2019-01-05T13:16:06.886Z,4.33
2019-01-05T13:18:26.000Z,4.33
2019-01-05T13:20:43.509Z,3.90
2019-01-05T13:23:19.075Z,4.30
2019-01-05T13:25:38.410Z,4.70
2019-01-05T13:27:57.573Z,5.10
2019-01-05T13:30:16.952Z,5.97
2019-01-05T13:32:28.849Z,5.00
2019-01-05T13:34:38.168Z,5.27
2019-01-05T13:37:14.562Z,4.80
2019-01-05T13:39:35.041Z,4.80
2019-01-05T13:41:55.536Z,4.40
2019-01-05T13:44:15.083Z,4.60
2019-01-05T13:46:44.829Z,4.30
2019-01-05T13:49:04.020Z,4.43
2019-01-05T13:51:23.437Z,4.93
2019-01-05T13:53:59.333Z,4.70
2019-01-05T13:56:13.961Z,5.13
2019-01-05T13:58:28.536Z,5.10
2019-01-05T14:00:44.927Z,5.00
2019-01-05T14:03:01.126Z,5.23
2019-01-05T14:05:20.717Z,5.63
2019-01-05T14:07:36.591Z,5.70
2019-01-05T14:10:02.849Z,5.60
2019-01-05T14:12:23.348Z,5.57
2019-01-05T14:14:43.580Z,5.23
2019-01-05T14:17:13.408Z,4.83
2019-01-05T14:19:43.160Z,5.20
2019-01-05T14:22:00.924Z,5.20
2019-01-05T14:24:32.513Z,5.20
2019-01-05T14:26:51.620Z,5.40
2019-01-05T14:29:10.609Z,5.47
2019-01-05T14:31:46.685Z,5.70
2019-01-05T14:34:03.799Z,6.00
2019-01-05T14:36:23.084Z,5.30
2019-01-05T14:38:42.548Z,5.70
2019-01-05T14:41:06.406Z,5.67
2019-01-05T14:43:25.908Z,6.03
2019-01-05T14:45:49.429Z,6.73
2019-01-05T14:48:15.742Z,6.30
2019-01-05T14:50:34.781Z,6.73
2019-01-05T14:53:06.582Z,6.47
2019-01-05T14:55:27.063Z,7.20
2019-01-05T14:57:46.157Z,6.97
2019-01-05T15:00:09.749Z,7.10
2019-01-05T15:02:26.806Z,7.80
2019-01-05T15:04:47.281Z,9.03
2019-01-05T15:07:10.616Z,8.60
2019-01-05T15:09:30.237Z,8.30
2019-01-05T15:11:53.756Z,7.53
2019-01-05T15:14:17.272Z,8.33
2019-01-05T15:16:40.540Z,8.73
2019-01-05T15:19:08.804Z,7.97
2019-01-05T15:21:35.347Z,9.00
2019-01-05T15:23:58.593Z,9.07
2019-01-05T15:26:17.721Z,8.23
2019-01-05T15:28:40.932Z,8.37
2019-01-05T15:31:00.993Z,7.67
2019-01-05T15:33:30.545Z,8.40
2019-01-05T15:35:49.817Z,8.43
2019-01-05T15:38:10.297Z,9.23
2019-01-05T15:40:29.409Z,9.13
2019-01-05T15:42:59.032Z,9.67
2019-01-05T15:45:19.519Z,8.67
2019-01-05T15:47:38.656Z,9.07
2019-01-05T15:50:02.161Z,8.87
2019-01-05T15:52:22.661Z,8.90
2019-01-05T15:54:41.843Z,9.20
2019-01-05T15:57:01.157Z,8.83
2019-01-05T15:59:19.240Z,9.23
2019-01-05T16:01:45.793Z,9.40
2019-01-05T16:04:09.516Z,9.27
2019-01-05T16:06:32.866Z,9.33
2019-01-05T16:08:56.416Z,9.10
2019-01-05T16:11:15.500Z,9.73
2019-01-05T16:13:38.996Z,10.60
2019-01-05T16:15:59.267Z,10.20
2019-01-05T16:18:31.852Z,10.00
2019-01-05T16:20:50.996Z,9.77
2019-01-05T16:23:10.436Z,9.90
2019-01-05T16:25:33.966Z,9.90
2019-01-05T16:27:46.336Z,9.80
2019-01-05T16:30:13.045Z,9.80
2019-01-05T16:32:36.550Z,10.60
2019-01-05T16:35:00.223Z,11.07
2019-01-05T16:37:35.989Z,10.47
2019-01-05T16:39:56.474Z,10.57
2019-01-05T16:42:26.021Z,10.33
2019-01-05T16:44:58.392Z,10.00
2019-01-05T16:47:24.924Z,10.10
2019-01-05T16:49:55.718Z,9.67
2019-01-05T16:52:22.264Z,9.20
2019-01-05T16:54:40.390Z,10.00
2019-01-05T16:57:10.047Z,9.40
2019-01-05T16:59:27.621Z,10.23
2019-01-05T17:01:51.128Z,10.23
2019-01-05T17:04:10.962Z,9.43
2019-01-05T17:06:49.992Z,11.17
2019-01-05T17:09:28.677Z,10.17
2019-01-05T17:11:55.869Z,16.07
2019-01-05T17:14:14.866Z,11.57
2019-01-05T17:16:34.699Z,10.50
2019-01-05T17:18:53.838Z,9.50
2019-01-05T17:21:13.640Z,10.60
2019-01-05T17:23:33.096Z,9.70
2019-01-05T17:25:59.830Z,9.90
2019-01-05T17:28:23.134Z,10.83
2019-01-05T17:30:58.817Z,11.47
2019-01-05T17:33:17.867Z,11.03
2019-01-05T17:35:41.397Z,10.93
2019-01-05T17:38:00.771Z,11.00
2019-01-05T17:40:27.049Z,11.33
2019-01-05T17:42:53.880Z,10.50
2019-01-05T17:45:14.117Z,10.57
2019-01-05T17:47:30.941Z,10.93
2019-01-05T17:49:50.211Z,11.00
2019-01-05T17:52:09.793Z,11.57
2019-01-05T17:54:39.553Z,10.20
2019-01-05T17:57:00.041Z,11.00
2019-01-05T17:59:20.533Z,10.40
2019-01-05T18:01:47.096Z,11.47
2019-01-05T18:04:07.313Z,11.60
2019-01-05T18:06:26.537Z,11.30
2019-01-05T18:09:02.424Z,11.97
2019-01-05T18:11:30.404Z,11.83
2019-01-05T18:13:49.558Z,12.47
2019-01-05T18:16:09.054Z,11.83
2019-01-05T18:18:28.660Z,12.03
2019-01-05T18:20:48.204Z,11.63
2019-01-05T18:23:07.686Z,11.53
2019-01-05T18:25:31.205Z,12.00
2019-01-05T18:27:57.908Z,13.23
2019-01-05T18:30:18.028Z,12.00
2019-01-05T18:32:49.675Z,11.83
2019-01-05T18:35:13.333Z,12.87
2019-01-05T18:37:33.867Z,11.73
2019-01-05T18:39:54.321Z,12.57
2019-01-05T18:42:17.893Z,11.60
2019-01-05T18:44:37.274Z,11.50
2019-01-05T18:46:56.712Z,11.77
2019-01-05T18:49:17.197Z,11.63
2019-01-05T18:51:36.552Z,11.60
2019-01-05T18:54:09.316Z,12.07
2019-01-05T18:56:28.636Z,11.83
2019-01-05T18:58:48.312Z,10.77
2019-01-05T19:01:17.952Z,11.03
2019-01-05T19:03:43.148Z,10.27
2019-01-05T19:06:05.152Z,11.60
2019-01-05T19:08:25.664Z,10.73
2019-01-05T19:10:47.676Z,11.53
2019-01-05T19:13:02.785Z,10.97
2019-01-05T19:15:29.338Z,10.57
2019-01-05T19:17:58.944Z,11.50
2019-01-05T19:20:19.413Z,11.17
2019-01-05T19:22:50.250Z,10.87
2019-01-05T19:25:02.415Z,10.57
2019-01-05T19:27:22.934Z,10.83
2019-01-05T19:29:58.836Z,9.53
2019-01-05T19:32:17.869Z,9.63
2019-01-05T19:34:50.581Z,10.00
2019-01-05T19:37:11.082Z,10.53
2019-01-05T19:39:30.564Z,9.60
2019-01-05T19:41:49.993Z,9.33
2019-01-05T19:44:21.208Z,10.70
2019-01-05T19:46:47.604Z,10.50
2019-01-05T19:49:06.756Z,10.63
2019-01-05T19:51:20.037Z,9.93
2019-01-05T19:53:48.082Z,10.60
2019-01-05T19:56:08.560Z,11.77
2019-01-05T19:58:38.376Z,12.20
2019-01-05T20:01:01.640Z,11.47
2019-01-05T20:03:20.847Z,12.03
2019-01-05T20:05:50.673Z,11.57
2019-01-05T20:08:16.979Z,12.80
2019-01-05T20:10:38.775Z,11.37
2019-01-05T20:12:58.116Z,12.13
2019-01-05T20:15:17.393Z,11.13
2019-01-05T20:17:36.823Z,11.27
2019-01-05T20:19:53.684Z,11.27
2019-01-05T20:22:02.633Z,10.67
2019-01-05T20:24:32.328Z,10.93
2019-01-05T20:26:51.677Z,11.40
2019-01-05T20:29:12.184Z,10.50
2019-01-05T20:31:31.585Z,10.77
2019-01-05T20:33:59.724Z,11.17
2019-01-05T20:36:19.228Z,10.90
2019-01-05T20:38:36.428Z,10.73
2019-01-05T20:40:55.892Z,11.00
2019-01-05T20:43:18.424Z,11.33
2019-01-05T20:45:57.285Z,11.47
2019-01-05T20:48:28.413Z,12.07
2019-01-05T20:50:57.992Z,11.87
2019-01-05T20:53:17.080Z,10.60
2019-01-05T20:55:52.520Z,11.10
2019-01-05T20:58:07.185Z,11.43
2019-01-05T21:00:30.631Z,11.37
2019-01-05T21:03:09.531Z,11.50
2019-01-05T21:05:28.167Z,10.73
2019-01-05T21:07:47.281Z,10.17
2019-01-05T21:10:10.745Z,9.93
2019-01-05T21:12:37.581Z,10.30
2019-01-05T21:15:02.469Z,9.53
2019-01-05T21:17:18.771Z,9.83
2019-01-05T21:19:42.025Z,9.73
2019-01-05T21:22:02.517Z,9.63
2019-01-05T21:24:22.031Z,9.67
2019-01-05T21:26:42.532Z,10.57
2019-01-05T21:29:12.071Z,10.40
2019-01-05T21:31:26.537Z,10.43
2019-01-05T21:33:56.400Z,9.83
2019-01-05T21:36:26.481Z,8.80
2019-01-05T21:38:49.812Z,8.80
2019-01-05T21:41:05.617Z,8.97
2019-01-05T21:43:24.928Z,9.20
2019-01-05T21:45:44.452Z,9.60
2019-01-05T21:48:16.552Z,11.20
2019-01-05T21:50:37.029Z,9.73
2019-01-05T21:52:56.128Z,9.47
2019-01-05T21:55:25.917Z,9.33
2019-01-05T21:57:46.303Z,8.83
2019-01-05T22:00:05.608Z,10.07
2019-01-05T22:02:34.476Z,8.90
2019-01-05T22:05:05.076Z,8.87
2019-01-05T22:07:37.748Z,8.07
2019-01-05T22:09:57.296Z,7.93
2019-01-05T22:12:20.950Z,8.40
2019-01-05T22:14:40.258Z,8.00
2019-01-05T22:17:19.409Z,7.33
2019-01-05T22:19:38.640Z,8.63
2019-01-05T22:22:17.576Z,7.50
2019-01-05T22:24:49.949Z,7.40
2019-01-05T22:27:09.296Z,8.57
2019-01-05T22:29:40.073Z,7.97
2019-01-05T22:31:59.220Z,7.30
2019-01-05T22:34:29.661Z,7.73
2019-01-05T22:37:02.829Z,7.63
2019-01-05T22:39:22.119Z,8.00
2019-01-05T22:41:42.897Z,7.70
2019-01-05T22:44:05.033Z,6.63
2019-01-05T22:46:24.576Z,6.10
2019-01-05T22:48:44.011Z,6.23
2019-01-05T22:51:12.681Z,6.10
2019-01-05T22:53:33.181Z,7.80
2019-01-05T22:55:53.660Z,6.40
2019-01-05T22:58:14.152Z,5.83
2019-01-05T23:00:37.301Z,5.70
2019-01-05T23:03:06.920Z,5.80
2019-01-05T23:05:26.476Z,5.50
2019-01-05T23:07:52.505Z,5.73
2019-01-05T23:10:17.628Z,5.60
2019-01-05T23:12:55.212Z,6.03
2019-01-05T23:15:09.751Z,5.57
2019-01-05T23:17:29.641Z,5.37
2019-01-05T23:20:02.229Z,4.93
2019-01-05T23:22:28.749Z,4.63
2019-01-05T23:24:58.069Z,4.50
2019-01-05T23:27:28.163Z,5.13
2019-01-05T23:29:47.544Z,4.40
2019-01-05T23:32:14.064Z,4.93
2019-01-05T23:34:26.600Z,5.50
2019-01-05T23:37:00.453Z,5.10
2019-01-05T23:39:19.812Z,5.23
2019-01-05T23:41:40.317Z,5.00
2019-01-05T23:44:01.963Z,5.57
2019-01-05T23:46:18.796Z,5.20
2019-01-05T23:48:33.736Z,5.40
2019-01-05T23:51:03.592Z,5.40
2019-01-05T23:53:32.945Z,5.67
2019-01-05T23:55:59.379Z,5.20
2019-01-05T23:58:21.517Z,5.57
